Time;durP1;ratioP1;P1;durP2;ratioP2;P2;SDS_P1;SDS_P2;PMS_P1;PMS_P2;Temp;Humidity;BMP_temperature;BMP_pressure;BME280_temperature;BME280_humidity;BME280_pressure;Samples;Min_cycle;Max_cycle;Signal;HPM_P1;HPM_P2
2023/08/08 00:00:54;;;;;;;5.20;1.80;;;;;;;21.28;66.48;98812.07;79722;1292;3018701;-67
2023/08/08 00:03:20;;;;;;;3.60;1.60;;;;;;;21.20;66.86;98815.70;79685;1291;3011538;-66
2023/08/08 00:05:49;;;;;;;4.40;1.90;;;;;;;21.21;66.86;98815.19;78370;1295;3025183;-65
2023/08/08 00:08:15;;;;;;;6.80;1.80;;;;;;;21.26;66.26;98813.46;79755;1292;3013573;-65
2023/08/08 00:10:42;;;;;;;4.00;1.80;;;;;;;21.22;66.67;98816.48;79572;1295;3013089;-64
2023/08/08 00:13:10;;;;;;;6.30;2.00;;;;;;;21.19;66.92;98818.02;78541;1295;3026592;-67
2023/08/08 00:15:36;;;;;;;2.90;1.80;;;;;;;21.17;66.70;98819.39;79726;1291;3012950;-66
2023/08/08 00:18:03;;;;;;;2.70;1.60;;;;;;;21.04;67.24;98824.95;79798;1292;3013403;-66
2023/08/08 00:20:31;;;;;;;6.60;1.90;;;;;;;20.91;67.65;98822.29;78437;1292;3026811;-64
2023/08/08 00:22:57;;;;;;;3.20;1.40;;;;;;;20.89;68.05;98825.08;79703;1292;3013164;-65
2023/08/08 00:25:24;;;;;;;4.10;1.50;;;;;;;21.39;66.62;98824.48;79755;1292;3011925;-66
2023/08/08 00:27:52;;;;;;;7.90;1.60;;;;;;;21.67;64.92;98825.95;78568;1295;3025941;-64
2023/08/08 00:30:18;;;;;;;5.80;1.90;;;;;;;21.60;64.65;98823.30;79712;1296;3018644;-65
2023/08/08 00:32:45;;;;;;;6.80;1.40;;;;;;;21.44;64.83;98830.32;79581;1292;3013509;-63
2023/08/08 00:35:12;;;;;;;6.60;1.40;;;;;;;21.24;64.75;98828.55;78385;1295;3026807;-66
2023/08/08 00:37:39;;;;;;;5.00;1.30;;;;;;;21.14;64.61;98827.93;79713;1295;3013080;-67
2023/08/08 00:40:06;;;;;;;4.90;1.40;;;;;;;21.08;64.17;98835.70;79666;1292;3011819;-67
2023/08/08 00:42:34;;;;;;;2.50;1.50;;;;;;;20.91;64.82;98833.20;78390;1292;3050763;-66
2023/08/08 00:45:04;;;;;;;3.20;2.30;;;;;;;20.86;65.15;98830.52;79746;1292;3013147;-67
2023/08/08 00:47:33;;;;;;;4.70;2.80;;;;;;;20.73;65.67;98834.39;78468;1292;3054541;-64
2023/08/08 00:50:02;;;;;;;6.00;3.00;;;;;;;20.68;65.78;98834.53;79634;1297;3014837;-66
2023/08/08 00:52:29;;;;;;;6.80;2.70;;;;;;;20.65;65.96;98835.02;79796;1295;3011777;-66
2023/08/08 00:54:57;;;;;;;6.00;2.80;;;;;;;20.55;66.39;98835.44;78539;1292;3068322;-63
2023/08/08 00:57:23;;;;;;;10.40;3.60;;;;;;;20.50;66.57;98839.77;79780;1292;3013776;-67
2023/08/08 00:59:51;;;;;;;5.70;3.00;;;;;;;20.47;66.76;98836.10;79654;1292;3012942;-66
2023/08/08 01:02:19;;;;;;;4.20;2.80;;;;;;;20.35;67.13;98837.45;78493;1294;3053376;-64
2023/08/08 01:04:46;;;;;;;5.40;2.60;;;;;;;20.32;67.12;98842.48;79514;1294;3013029;-64
2023/08/08 01:07:16;;;;;;;8.10;2.90;;;;;;;20.31;67.49;98845.41;79598;1296;3011779;-64
2023/08/08 01:10:04;;;;;;;5.00;2.40;;;;;;;20.29;67.52;98845.59;78534;1295;3069084;-64
2023/08/08 01:12:56;;;;;;;3.10;2.40;;;;;;;20.25;67.83;98845.73;78463;1295;3050975;-65
2023/08/08 01:15:24;;;;;;;3.20;1.90;;;;;;;20.24;68.22;98845.73;78270;1298;3057269;-66
2023/08/08 01:17:51;;;;;;;3.40;1.90;;;;;;;20.87;66.37;98841.30;79702;1292;3012940;-67
2023/08/08 01:20:18;;;;;;;4.00;1.80;;;;;;;21.23;65.09;98845.33;79603;1292;3013681;-66
2023/08/08 01:22:56;;;;;;;2.30;1.60;;;;;;;21.13;65.05;98849.16;78489;1297;3026511;-66
2023/08/08 01:25:24;;;;;;;2.70;1.80;;;;;;;21.04;65.31;98849.81;78535;1297;3053467;-64
2023/08/08 01:27:51;;;;;;;6.60;2.00;;;;;;;20.88;65.84;98848.67;79531;1293;3012831;-65
2023/08/08 01:30:17;;;;;;;4.20;1.60;;;;;;;20.67;66.60;98851.38;79625;1298;3011782;-65
2023/08/08 01:32:45;;;;;;;5.10;1.60;;;;;;;20.48;67.21;98855.38;78514;1295;3026592;-63
2023/08/08 01:35:11;;;;;;;4.90;1.50;;;;;;;20.36;67.75;98853.94;79569;1294;3012974;-64
2023/08/08 01:37:46;;;;;;;3.60;1.90;;;;;;;20.24;68.48;98858.38;79661;1295;3011761;-64
2023/08/08 01:40:16;;;;;;;4.80;2.30;;;;;;;20.11;68.96;98864.31;78494;1295;3051852;-63
2023/08/08 01:42:47;;;;;;;5.70;2.20;;;;;;;20.01;69.47;98864.65;79543;1292;3012867;-65
2023/08/08 01:45:15;;;;;;;5.00;1.90;;;;;;;19.97;70.01;98864.05;78395;1295;3050827;-64
2023/08/08 01:47:42;;;;;;;3.60;1.70;;;;;;;20.45;68.69;98870.32;79662;1292;3013840;-63
2023/08/08 01:50:09;;;;;;;4.20;1.90;;;;;;;20.71;67.54;98876.40;79552;1291;3011560;-64
2023/08/08 01:52:37;;;;;;;6.40;2.30;;;;;;;20.72;67.38;98875.23;78433;1295;3050839;-64
2023/08/08 01:55:04;;;;;;;2.90;2.00;;;;;;;20.66;67.31;98878.81;79611;1295;3018323;-62
2023/08/08 01:57:31;;;;;;;9.20;2.10;;;;;;;20.47;67.88;98882.25;79583;1295;3011586;-63
2023/08/08 02:00:00;;;;;;;2.80;1.90;;;;;;;20.36;68.44;98885.95;78459;1295;3052489;-63
2023/08/08 02:02:27;;;;;;;6.00;2.20;;;;;;;20.15;69.28;98890.19;79667;1292;3012834;-63
2023/08/08 02:04:54;;;;;;;6.20;2.40;;;;;;;20.07;69.53;98889.98;79568;1295;3011753;-64
2023/08/08 02:07:21;;;;;;;4.10;2.40;;;;;;;20.04;69.77;98896.94;78395;1292;3028883;-63
2023/08/08 02:09:50;;;;;;;3.30;2.10;;;;;;;19.98;70.17;98896.67;79647;1295;3013280;-67
2023/08/08 02:12:20;;;;;;;2.90;2.50;;;;;;;20.45;68.84;98895.26;79252;1291;3011571;-67
2023/08/08 02:14:47;;;;;;;5.00;2.40;;;;;;;20.70;68.07;98896.35;79747;1292;3019184;-66
2023/08/08 02:17:13;;;;;;;6.50;2.60;;;;;;;20.65;68.00;98902.25;79659;1291;3013413;-66
2023/08/08 02:19:41;;;;;;;5.70;2.50;;;;;;;20.52;68.39;98902.05;78558;1295;3025547;-65
2023/08/08 02:22:07;;;;;;;3.70;2.70;;;;;;;20.30;69.10;98906.27;79746;1292;3012882;-65
2023/08/08 02:24:34;;;;;;;4.40;2.60;;;;;;;20.18;69.54;98907.42;79615;1295;3012711;-66
2023/08/08 02:27:04;;;;;;;4.60;2.80;;;;;;;20.02;70.39;98911.87;78536;1295;3053351;-64
2023/08/08 02:29:30;;;;;;;5.20;3.30;;;;;;;20.03;69.98;98915.27;79675;1293;3012829;-65
2023/08/08 02:32:02;;;;;;;5.30;3.00;;;;;;;19.96;70.45;98914.98;79253;1292;3011559;-64
2023/08/08 02:34:28;;;;;;;4.60;2.50;;;;;;;19.88;70.90;98916.91;79643;1292;3019501;-65
2023/08/08 02:36:56;;;;;;;3.50;2.20;;;;;;;20.37;69.83;98920.34;79610;1292;3011472;-66
2023/08/08 02:39:24;;;;;;;3.00;2.50;;;;;;;20.73;68.21;98925.77;78509;1292;3050107;-67
2023/08/08 02:41:51;;;;;;;2.90;2.40;;;;;;;20.74;67.94;98927.60;79720;1292;3013286;-66
2023/08/08 02:44:19;;;;;;;5.70;2.30;;;;;;;20.63;68.44;98928.48;79606;1295;3011877;-64
2023/08/08 02:46:47;;;;;;;5.30;3.70;;;;;;;20.39;69.23;98928.46;78474;1295;3051668;-65
2023/08/08 02:49:14;;;;;;;7.70;3.50;;;;;;;20.24;69.67;98929.17;79526;1297;3013646;-64
2023/08/08 02:51:40;;;;;;;6.70;3.30;;;;;;;20.07;70.36;98935.05;79727;1295;3011735;-65
2023/08/08 02:54:08;;;;;;;7.20;3.40;;;;;;;19.98;70.76;98931.63;78493;1295;3026511;-66
2023/08/08 02:56:35;;;;;;;5.30;2.80;;;;;;;19.79;71.84;98926.24;79789;1295;3019291;-65
2023/08/08 02:59:02;;;;;;;4.60;2.30;;;;;;;19.66;72.10;98925.69;79713;1295;3011476;-65
2023/08/08 03:01:30;;;;;;;4.50;2.10;;;;;;;20.02;71.28;98932.77;78444;1298;3026767;-65
2023/08/08 03:03:57;;;;;;;4.40;2.20;;;;;;;20.25;70.21;98929.02;79611;1292;3013466;-67
2023/08/08 03:06:24;;;;;;;7.80;2.40;;;;;;;20.23;69.97;98928.09;79824;1291;3011375;-64
2023/08/08 03:08:52;;;;;;;3.80;2.20;;;;;;;19.97;70.99;98931.16;78115;1301;3027159;-64
2023/08/08 03:11:19;;;;;;;5.80;2.20;;;;;;;19.87;71.65;98932.27;79591;1292;3018984;-66
2023/08/08 03:13:46;;;;;;;4.10;2.30;;;;;;;19.76;71.98;98938.27;79809;1292;3011525;-67
2023/08/08 03:16:14;;;;;;;9.10;2.40;;;;;;;19.62;72.43;98936.00;78493;1292;3027440;-64
2023/08/08 03:18:40;;;;;;;3.50;1.90;;;;;;;19.56;72.99;98933.10;79534;1298;3018447;-63
2023/08/08 03:21:07;;;;;;;5.70;2.00;;;;;;;19.96;71.91;98941.46;79772;1294;3011870;-66
2023/08/08 03:23:35;;;;;;;7.10;1.90;;;;;;;20.22;70.58;98946.83;78503;1295;3028121;-65
2023/08/08 03:26:02;;;;;;;5.10;2.30;;;;;;;20.22;70.63;98942.39;79562;1296;3020748;-65
2023/08/08 03:28:29;;;;;;;2.40;2.20;;;;;;;20.22;70.35;98948.65;79566;1292;3013289;-65
2023/08/08 03:30:57;;;;;;;6.40;1.90;;;;;;;20.10;70.76;98948.98;78461;1295;3051659;-67
2023/08/08 03:33:24;;;;;;;5.20;2.30;;;;;;;19.94;71.53;98944.04;79660;1292;3013172;-66
2023/08/08 03:35:50;;;;;;;7.00;2.20;;;;;;;19.83;71.99;98943.39;79690;1297;3012993;-65
2023/08/08 03:38:18;;;;;;;4.60;1.40;;;;;;;19.79;72.37;98943.77;78462;1295;3027322;-65
2023/08/08 03:40:45;;;;;;;2.50;1.50;;;;;;;20.26;71.23;98947.69;79590;1298;3020667;-66
2023/08/08 03:43:12;;;;;;;4.20;1.90;;;;;;;20.76;69.38;98953.36;79573;1295;3011995;-64
2023/08/08 03:45:39;;;;;;;2.70;1.70;;;;;;;20.76;68.86;98951.98;78509;1292;3026033;-67
2023/08/08 03:48:06;;;;;;;2.90;1.90;;;;;;;20.62;69.18;98954.60;79782;1292;3013465;-66
2023/08/08 03:50:33;;;;;;;4.60;2.20;;;;;;;20.36;69.94;98961.44;79517;1292;3011910;-71
2023/08/08 03:53:00;;;;;;;8.50;2.00;;;;;;;20.19;70.92;98956.63;78310;1298;3026080;-67
2023/08/08 03:55:28;;;;;;;2.70;1.90;;;;;;;20.15;70.94;98961.63;79605;1291;3012741;-67
2023/08/08 03:57:55;;;;;;;3.20;2.00;;;;;;;20.04;71.25;98965.00;79550;1295;3011701;-64
2023/08/08 04:00:23;;;;;;;4.20;1.80;;;;;;;20.01;71.37;98961.52;78521;1292;3051638;-63
2023/08/08 04:02:50;;;;;;;3.20;1.50;;;;;;;19.96;71.95;98964.44;79683;1295;3013726;-63
2023/08/08 04:05:18;;;;;;;3.50;1.30;;;;;;;20.49;70.44;98968.30;79670;1291;3011623;-63
2023/08/08 04:07:46;;;;;;;8.10;2.00;;;;;;;20.94;68.52;98971.73;78505;1293;3050378;-64
2023/08/08 04:10:13;;;;;;;5.90;1.90;;;;;;;20.97;67.94;98975.11;79675;1295;3013940;-65
2023/08/08 04:12:39;;;;;;;3.40;1.60;;;;;;;20.66;68.41;98975.85;79670;1295;3012010;-63
2023/08/08 04:15:07;;;;;;;5.60;1.60;;;;;;;20.37;69.16;98978.45;78601;1292;3026990;-67
2023/08/08 04:17:34;;;;;;;8.00;1.90;;;;;;;20.27;69.62;98979.88;80193;1297;3013605;-67
2023/08/08 04:20:01;;;;;;;3.40;1.90;;;;;;;20.15;69.89;98985.96;80416;1291;3011669;-69
2023/08/08 04:22:28;;;;;;;2.20;1.80;;;;;;;20.14;69.97;98989.49;79144;1292;3026966;-66
2023/08/08 04:24:55;;;;;;;3.70;1.90;;;;;;;20.10;69.99;99000.56;80555;1294;3013403;-65
2023/08/08 04:27:21;;;;;;;3.50;2.10;;;;;;;20.02;70.51;99003.02;80454;1292;3011628;-66
2023/08/08 04:29:49;;;;;;;11.10;1.90;;;;;;;20.03;70.24;99005.23;79137;1295;3025796;-68
2023/08/08 04:32:15;;;;;;;4.70;1.80;;;;;;;20.50;69.04;99009.42;80618;1292;3013540;-65
2023/08/08 04:34:42;;;;;;;5.00;1.70;;;;;;;20.79;67.64;99012.71;80531;1291;3011565;-67
2023/08/08 04:37:10;;;;;;;2.90;1.80;;;;;;;20.76;66.98;99020.66;79044;1292;3027131;-65
2023/08/08 04:39:36;;;;;;;3.40;1.60;;;;;;;20.63;67.64;99020.85;80309;1294;3013371;-64
2023/08/08 04:42:03;;;;;;;4.30;2.10;;;;;;;20.45;68.21;99025.61;80353;1292;3011505;-66
2023/08/08 04:44:31;;;;;;;4.40;2.00;;;;;;;20.34;68.43;99025.16;79294;1291;3027288;-65
2023/08/08 04:46:58;;;;;;;4.80;2.00;;;;;;;20.24;69.24;99022.70;80903;1291;3018427;-64
2023/08/08 04:49:24;;;;;;;2.50;1.90;;;;;;;20.16;70.19;99029.70;80458;1292;3012794;-64
2023/08/08 04:51:52;;;;;;;5.80;2.40;;;;;;;20.08;70.35;99035.13;79447;1295;3026045;-68
2023/08/08 04:54:18;;;;;;;4.00;2.30;;;;;;;20.01;71.05;99035.83;80416;1292;3011451;-66
2023/08/08 04:56:45;;;;;;;3.40;1.70;;;;;;;20.01;71.16;99039.27;80712;1292;3013176;-68
2023/08/08 04:59:13;;;;;;;2.20;1.90;;;;;;;20.67;69.07;99043.52;79560;1291;3026751;-67
2023/08/08 05:01:39;;;;;;;5.50;1.60;;;;;;;20.94;66.54;99035.40;80328;1292;3012526;-64
2023/08/08 05:04:06;;;;;;;4.70;1.60;;;;;;;20.91;66.66;99041.98;80475;1291;3011944;-68
2023/08/08 05:06:34;;;;;;;7.00;2.00;;;;;;;20.92;66.63;99045.77;79635;1293;3028369;-66
2023/08/08 05:09:00;;;;;;;4.60;2.00;;;;;;;20.93;66.32;99050.83;80417;1292;3012986;-67
2023/08/08 05:11:27;;;;;;;2.90;1.80;;;;;;;20.86;66.62;99048.60;80033;1293;3011883;-65
2023/08/08 05:13:55;;;;;;;6.10;2.30;;;;;;;20.81;66.28;99046.24;78370;1292;3026977;-63
2023/08/08 05:16:22;;;;;;;5.00;1.90;;;;;;;20.59;66.70;99048.10;79659;1295;3012993;-65
2023/08/08 05:18:49;;;;;;;3.90;1.90;;;;;;;20.53;67.00;99043.04;79836;1292;3011618;-67
2023/08/08 05:21:17;;;;;;;6.80;2.00;;;;;;;20.57;67.09;99045.27;78508;1295;3049463;-67
2023/08/08 05:23:43;;;;;;;6.70;2.60;;;;;;;20.59;67.15;99050.21;79834;1295;3013214;-67
2023/08/08 05:26:10;;;;;;;3.50;1.90;;;;;;;20.67;67.02;99050.67;79684;1292;3011813;-63
2023/08/08 05:28:38;;;;;;;10.70;2.20;;;;;;;20.67;67.04;99049.67;78440;1292;3028480;-66
2023/08/08 05:31:04;;;;;;;6.60;2.00;;;;;;;20.77;66.52;99050.65;79799;1292;3018992;-64
2023/08/08 05:33:31;;;;;;;5.90;1.60;;;;;;;20.87;65.35;99052.56;79783;1292;3013202;-68
2023/08/08 05:35:59;;;;;;;5.00;2.20;;;;;;;20.91;65.35;99052.59;78520;1291;3026507;-63
2023/08/08 05:38:25;;;;;;;4.00;2.00;;;;;;;20.96;65.03;99053.92;79644;1298;3012945;-66
2023/08/08 05:40:52;;;;;;;4.40;1.80;;;;;;;20.94;65.09;99054.66;79794;1295;3011651;-65
2023/08/08 05:43:21;;;;;;;6.90;2.00;;;;;;;20.87;65.04;99058.41;78319;1292;3026599;-65
2023/08/08 05:45:48;;;;;;;4.60;1.70;;;;;;;20.77;65.65;99054.20;79784;1291;3012758;-65
2023/08/08 05:48:14;;;;;;;5.60;1.90;;;;;;;20.74;65.82;99049.18;79819;1292;3011671;-65
2023/08/08 05:50:42;;;;;;;4.60;1.70;;;;;;;20.84;65.57;99050.40;78408;1295;3049840;-66
2023/08/08 05:53:09;;;;;;;2.50;1.90;;;;;;;20.97;65.47;99053.02;79722;1295;3012829;-68
2023/08/08 05:55:35;;;;;;;7.70;1.70;;;;;;;21.01;65.46;99051.23;79700;1295;3011174;-64
2023/08/08 05:58:04;;;;;;;5.30;1.80;;;;;;;21.11;65.34;99057.02;78503;1291;3026395;-65
2023/08/08 06:00:31;;;;;;;5.30;1.90;;;;;;;21.29;64.87;99052.55;79593;1292;3012623;-66
2023/08/08 06:02:58;;;;;;;7.10;1.80;;;;;;;21.40;64.53;99061.23;79781;1293;3013115;-64
2023/08/08 06:05:26;;;;;;;5.50;2.00;;;;;;;21.32;64.16;99058.30;78309;1297;3049592;-64
2023/08/08 06:07:54;;;;;;;3.60;2.00;;;;;;;21.16;64.09;99064.95;79844;1295;3013403;-63
2023/08/08 06:10:22;;;;;;;7.70;2.30;;;;;;;21.15;64.27;99060.65;79745;1292;3011683;-66
2023/08/08 06:12:50;;;;;;;7.50;1.90;;;;;;;21.19;63.87;99060.69;78703;1295;3051491;-65
2023/08/08 06:15:16;;;;;;;3.20;2.30;;;;;;;21.31;63.71;99059.50;79722;1292;3013753;-63
2023/08/08 06:17:43;;;;;;;3.60;1.70;;;;;;;21.37;63.29;99057.46;79612;1295;3011582;-65
2023/08/08 06:20:11;;;;;;;3.50;1.80;;;;;;;21.52;62.82;99057.77;78456;1295;3024954;-68
2023/08/08 06:22:38;;;;;;;2.80;1.70;;;;;;;21.68;61.97;99056.73;79747;1295;3013405;-65
2023/08/08 06:25:06;;;;;;;7.80;1.80;;;;;;;21.69;62.03;99055.55;79659;1292;3013125;-66
2023/08/08 06:27:33;;;;;;;2.60;1.60;;;;;;;21.69;61.84;99052.92;78531;1295;3053292;-66
2023/08/08 06:30:00;;;;;;;9.50;2.00;;;;;;;21.64;62.32;99049.57;79881;1295;3012794;-66
2023/08/08 06:32:27;;;;;;;4.40;1.80;;;;;;;21.73;61.53;99046.05;79779;1292;3011648;-65
2023/08/08 06:34:55;;;;;;;5.60;1.80;;;;;;;21.89;60.74;99043.11;78411;1295;3028030;-63
2023/08/08 06:37:21;;;;;;;7.00;1.90;;;;;;;21.93;60.29;99039.41;80092;1295;3021074;-65
2023/08/08 06:39:48;;;;;;;6.50;1.90;;;;;;;21.96;60.19;99038.23;79740;1295;3011832;-70
2023/08/08 06:42:16;;;;;;;4.20;1.70;;;;;;;21.97;59.80;99034.13;78559;1295;3025778;-69
2023/08/08 06:44:52;;;;;;;7.70;1.60;;;;;;;21.98;59.24;99035.30;78727;1295;3057256;-71
2023/08/08 06:47:18;;;;;;;3.60;1.60;;;;;;;21.93;59.00;99035.73;79807;1292;3013170;-69
2023/08/08 06:49:44;;;;;;;3.70;1.60;;;;;;;21.90;58.76;99041.70;79888;1292;3011671;-69
2023/08/08 06:52:12;;;;;;;5.50;1.70;;;;;;;21.96;58.98;99035.30;78518;1295;3028752;-66
2023/08/08 06:54:39;;;;;;;8.10;1.80;;;;;;;22.16;58.57;99029.31;79872;1295;3013488;-72
2023/08/08 06:57:06;;;;;;;6.10;1.60;;;;;;;22.35;58.51;99028.33;79739;1295;3011706;-67
2023/08/08 06:59:33;;;;;;;3.90;1.50;;;;;;;22.36;57.97;99029.90;78622;1295;3026999;-66
2023/08/08 07:02:00;;;;;;;6.90;1.70;;;;;;;22.47;58.21;99028.77;79844;1293;3014329;-67
2023/08/08 07:04:27;;;;;;;11.50;2.00;;;;;;;22.64;57.93;99032.90;79831;1295;3011429;-68
2023/08/08 07:06:55;;;;;;;7.20;1.50;;;;;;;22.80;57.55;99027.39;78588;1295;3029585;-66
2023/08/08 07:09:22;;;;;;;3.80;1.40;;;;;;;22.94;56.86;99026.80;79810;1295;3013334;-68
2023/08/08 07:11:49;;;;;;;5.20;1.60;;;;;;;23.06;56.20;99028.95;79759;1292;3013527;-73
2023/08/08 07:14:16;;;;;;;5.80;1.60;;;;;;;23.08;55.98;99028.52;78596;1292;3028228;-63
2023/08/08 07:16:43;;;;;;;8.70;1.70;;;;;;;22.83;55.99;99035.79;79825;1292;3013826;-69
2023/08/08 07:19:11;;;;;;;5.90;1.60;;;;;;;22.77;56.37;99035.29;79721;1295;3013141;-66
2023/08/08 07:21:39;;;;;;;3.80;1.50;;;;;;;22.95;56.05;99028.64;78586;1295;3052871;-64
2023/08/08 07:24:06;;;;;;;6.30;1.70;;;;;;;23.16;55.42;99034.35;79646;1296;3021268;-67
2023/08/08 07:26:32;;;;;;;5.80;1.70;;;;;;;23.17;54.90;99034.16;79617;1295;3013988;-66
2023/08/08 07:29:00;;;;;;;6.30;1.60;;;;;;;23.09;54.22;99043.26;78551;1295;3026223;-70
2023/08/08 07:31:27;;;;;;;5.50;1.60;;;;;;;22.96;54.65;99040.67;79738;1295;3013118;-68
2023/08/08 07:33:53;;;;;;;3.70;1.50;;;;;;;22.91;53.91;99041.46;79817;1303;3011804;-69
2023/08/08 07:36:21;;;;;;;2.60;1.40;;;;;;;23.04;53.70;99045.28;78591;1295;3028295;-71
2023/08/08 07:38:47;;;;;;;3.10;1.40;;;;;;;23.18;53.43;99044.98;79815;1295;3013381;-67
2023/08/08 07:41:14;;;;;;;5.40;1.70;;;;;;;23.28;52.86;99046.48;79762;1295;3011649;-70
2023/08/08 07:43:42;;;;;;;5.30;1.50;;;;;;;23.33;52.34;99046.69;78554;1292;3026341;-68
2023/08/08 07:46:08;;;;;;;6.40;1.20;;;;;;;23.40;51.95;99044.77;79724;1291;3012802;-71
2023/08/08 07:48:35;;;;;;;3.30;1.40;;;;;;;23.34;51.76;99045.48;79581;1298;3013479;-65
2023/08/08 07:51:03;;;;;;;7.90;1.50;;;;;;;23.35;52.03;99044.25;78621;1295;3028112;-68
2023/08/08 07:53:29;;;;;;;2.30;1.40;;;;;;;23.44;52.04;99048.74;79821;1295;3013660;-65
2023/08/08 07:55:56;;;;;;;6.70;1.40;;;;;;;23.42;51.56;99045.41;79631;1295;3011721;-68
2023/08/08 07:58:25;;;;;;;4.60;1.10;;;;;;;23.52;51.12;99038.23;78680;1291;3027206;-67
2023/08/08 08:00:53;;;;;;;3.20;1.20;;;;;;;23.76;51.25;99039.59;79733;1293;3013355;-66
2023/08/08 08:03:20;;;;;;;4.20;1.70;;;;;;;23.92;50.62;99040.90;79777;1293;3011653;-65
2023/08/08 08:05:48;;;;;;;7.30;1.80;;;;;;;23.91;49.90;99039.94;78455;1295;3052326;-67
2023/08/08 08:08:14;;;;;;;3.50;1.50;;;;;;;23.97;49.40;99046.58;79763;1292;3013170;-67
2023/08/08 08:10:41;;;;;;;5.30;1.40;;;;;;;23.99;48.95;99047.08;79844;1295;3012791;-66
2023/08/08 08:13:10;;;;;;;1.20;1.00;;;;;;;24.02;48.88;99046.88;78378;1291;3026677;-65
2023/08/08 08:15:37;;;;;;;2.80;1.20;;;;;;;24.19;48.96;99044.98;79891;1291;3011881;-69
2023/08/08 08:18:04;;;;;;;3.30;1.40;;;;;;;24.21;48.92;99045.98;79628;1295;3011679;-68
2023/08/08 08:20:32;;;;;;;1.50;0.90;;;;;;;24.17;48.92;99045.70;78645;1297;3052308;-69
2023/08/08 08:22:59;;;;;;;1.90;1.20;;;;;;;23.95;48.84;99043.79;79933;1293;3013786;-66
2023/08/08 08:25:25;;;;;;;3.00;1.20;;;;;;;24.03;48.60;99040.52;79872;1295;3011512;-67
2023/08/08 08:27:53;;;;;;;3.10;1.20;;;;;;;24.09;48.21;99036.13;78672;1291;3026616;-69
2023/08/08 08:30:20;;;;;;;2.80;1.40;;;;;;;24.09;48.42;99036.26;79900;1292;3013465;-67
2023/08/08 08:32:47;;;;;;;2.80;1.10;;;;;;;24.18;48.53;99028.16;79796;1295;3011614;-65
2023/08/08 08:35:16;;;;;;;6.70;1.30;;;;;;;24.24;48.64;99033.96;78560;1295;3026725;-67
2023/08/08 08:37:43;;;;;;;5.50;1.20;;;;;;;24.18;48.97;99024.52;79885;1295;3013014;-69
2023/08/08 08:40:10;;;;;;;3.60;1.00;;;;;;;24.21;48.86;99022.45;79848;1293;3011894;-70
2023/08/08 08:42:40;;;;;;;2.40;1.20;;;;;;;24.42;48.08;99016.14;78571;1292;3055047;-65
2023/08/08 08:45:09;;;;;;;4.60;1.60;;;;;;;24.47;48.14;99013.75;79781;1293;3013433;-68
2023/08/08 08:47:37;;;;;;;5.30;1.20;;;;;;;24.44;48.15;99010.27;78668;1293;3026337;-68
2023/08/08 08:50:04;;;;;;;4.20;1.30;;;;;;;24.44;48.26;99013.33;79746;1295;3014275;-66
2023/08/08 08:52:32;;;;;;;4.30;1.20;;;;;;;24.47;48.01;99015.15;80114;1295;3013044;-67
2023/08/08 08:55:00;;;;;;;2.60;1.20;;;;;;;24.50;47.70;99015.09;78572;1291;3067957;-65
2023/08/08 08:57:27;;;;;;;6.20;1.40;;;;;;;24.68;47.74;99020.17;79948;1295;3018372;-68
2023/08/08 08:59:53;;;;;;;6.00;1.50;;;;;;;24.90;47.32;99019.58;79802;1293;3012609;-66
2023/08/08 09:02:21;;;;;;;4.40;1.40;;;;;;;25.06;46.98;99024.50;78604;1295;3025774;-67
2023/08/08 09:04:47;;;;;;;2.80;1.20;;;;;;;25.22;46.52;99028.03;79762;1298;3013008;-69
2023/08/08 09:07:14;;;;;;;2.20;1.30;;;;;;;25.04;46.26;99033.93;79944;1298;3011949;-66
2023/08/08 09:09:45;;;;;;;4.00;1.50;;;;;;;24.97;46.63;99027.61;78529;1298;3026234;-69
2023/08/08 09:12:12;;;;;;;4.60;1.10;;;;;;;24.92;46.42;99027.53;79913;1295;3012634;-68
2023/08/08 09:14:41;;;;;;;1.10;1.00;;;;;;;24.86;46.47;99027.24;79239;1292;3011882;-66
2023/08/08 09:17:12;;;;;;;5.40;1.30;;;;;;;25.00;46.67;99031.25;79739;1292;3016193;-67
2023/08/08 09:19:44;;;;;;;1.70;1.20;;;;;;;25.18;46.57;99024.42;78645;1292;3049505;-69
2023/08/08 09:22:14;;;;;;;4.90;1.40;;;;;;;25.46;45.68;99026.41;79951;1295;3011484;-69
2023/08/08 09:24:42;;;;;;;2.60;1.40;;;;;;;25.54;45.43;99016.04;78657;1295;3051521;-65
2023/08/08 09:27:09;;;;;;;4.60;1.40;;;;;;;25.67;45.39;99012.53;79788;1295;3018359;-66
2023/08/08 09:29:36;;;;;;;5.70;1.40;;;;;;;25.79;45.18;99006.67;79725;1295;3011677;-66
2023/08/08 09:32:05;;;;;;;5.00;1.40;;;;;;;25.86;45.21;99002.64;78524;1293;3049924;-66
2023/08/08 09:34:32;;;;;;;3.50;1.30;;;;;;;25.80;45.16;99002.67;79715;1294;3013392;-68
2023/08/08 09:36:59;;;;;;;7.00;1.70;;;;;;;25.85;45.28;98995.15;79852;1295;3011357;-66
2023/08/08 09:39:28;;;;;;;7.60;1.60;;;;;;;26.02;44.76;98994.84;78682;1296;3053329;-67
2023/08/08 09:41:55;;;;;;;1.90;1.40;;;;;;;25.88;44.75;99003.30;79916;1295;3013451;-67
2023/08/08 09:44:29;;;;;;;1.90;1.60;;;;;;;25.60;45.21;99002.81;79832;1295;3013570;-67
2023/08/08 09:46:57;;;;;;;;;;;;;;;25.67;45.39;98999.79;78264;1297;3049541;-66
2023/08/08 09:49:24;;;;;;;2.50;1.40;;;;;;;25.54;45.39;99004.05;79717;1295;3013748;-65
2023/08/08 09:51:50;;;;;;;8.20;1.90;;;;;;;25.67;45.23;99000.32;79573;1298;3011658;-68
2023/08/08 09:54:18;;;;;;;3.20;1.30;;;;;;;25.93;44.92;99001.82;78509;1295;3028186;-67
2023/08/08 09:56:45;;;;;;;2.60;1.20;;;;;;;26.03;43.99;98997.18;79562;1298;3013480;-65
2023/08/08 09:59:12;;;;;;;1.40;1.20;;;;;;;26.27;42.77;98996.97;79768;1292;3013176;-69
2023/08/08 10:01:41;;;;;;;7.70;1.60;;;;;;;26.38;42.89;99004.29;76253;1299;3100175;-70
2023/08/08 10:04:08;;;;;;;3.50;1.80;;;;;;;26.05;43.67;99002.02;79824;1292;3013647;-69
2023/08/08 10:06:34;;;;;;;3.80;1.50;;;;;;;26.04;43.90;98991.50;79816;1293;3011672;-64
2023/08/08 10:09:03;;;;;;;9.20;1.20;;;;;;;26.17;43.28;98995.25;78511;1295;3051619;-69
2023/08/08 10:11:30;;;;;;;2.10;1.10;;;;;;;26.37;43.02;98993.77;79945;1292;3013528;-71
2023/08/08 10:13:56;;;;;;;2.70;1.50;;;;;;;26.31;43.33;98999.02;79790;1293;3011633;-67
2023/08/08 10:16:24;;;;;;;3.70;1.20;;;;;;;26.16;43.82;98993.31;78355;1301;3047919;-69
2023/08/08 10:19:01;;;;;;;6.30;1.40;;;;;;;26.16;44.11;98997.53;79820;1304;3018985;-68
2023/08/08 10:21:37;;;;;;;1.20;1.10;;;;;;;26.45;43.78;98994.14;78557;1298;3052590;-68
2023/08/08 10:24:07;;;;;;;5.20;1.40;;;;;;;26.79;43.35;98988.98;78579;1295;3052451;-71
2023/08/08 10:26:33;;;;;;;9.20;1.10;;;;;;;27.01;43.03;98993.08;79886;1295;3011757;-68
2023/08/08 10:29:00;;;;;;;1.60;1.20;;;;;;;26.84;43.07;98996.40;79851;1295;3011592;-69
2023/08/08 10:31:34;;;;;;;2.70;1.60;;;;;;;26.65;43.30;98996.98;78526;1295;3049568;-68
2023/08/08 10:34:05;;;;;;;6.60;1.30;;;;;;;26.90;43.12;98995.09;79991;1296;3013044;-65
2023/08/08 10:36:44;;;;;;;4.40;1.20;;;;;;;27.18;42.61;98990.75;78461;1296;3050679;-67
2023/08/08 10:39:16;;;;;;;3.60;1.30;;;;;;;27.39;42.03;98990.17;78636;1295;3053051;-73
2023/08/08 10:41:46;;;;;;;;;;;;;;;27.49;41.39;98996.28;79873;1295;3011668;-71
2023/08/08 10:44:21;;;;;;;7.20;1.60;;;;;;;27.24;41.53;98998.80;78478;1295;3068157;-67
2023/08/08 10:46:51;;;;;;;5.20;1.40;;;;;;;26.86;42.00;98996.27;79420;1298;3011917;-67
2023/08/08 10:49:17;;;;;;;6.60;1.60;;;;;;;26.83;42.21;98990.10;79814;1292;3011896;-68
2023/08/08 10:51:46;;;;;;;4.00;1.30;;;;;;;26.74;42.40;98994.34;79781;1294;3011668;-71
2023/08/08 10:54:15;;;;;;;2.80;1.20;;;;;;;26.79;42.18;98998.06;78515;1304;3053468;-69
2023/08/08 10:56:49;;;;;;;7.30;1.30;;;;;;;26.88;41.88;98992.57;79858;1298;3013084;-68
2023/08/08 10:59:29;;;;;;;5.20;1.40;;;;;;;27.14;41.32;98993.62;78533;1297;3053202;-69
2023/08/08 11:01:57;;;;;;;5.40;1.20;;;;;;;27.23;40.40;98994.13;78612;1297;3069828;-70
2023/08/08 11:04:25;;;;;;;1.20;1.10;;;;;;;27.44;40.41;98986.22;79706;1298;3012963;-65
2023/08/08 11:06:53;;;;;;;4.60;1.30;;;;;;;27.69;39.14;98986.23;79825;1292;3012114;-64
2023/08/08 11:09:22;;;;;;;3.40;1.20;;;;;;;27.68;38.62;98984.73;78603;1292;3053527;-71
2023/08/08 11:11:49;;;;;;;5.90;1.50;;;;;;;27.78;38.87;98981.90;79827;1298;3012934;-69
2023/08/08 11:14:17;;;;;;;4.90;1.00;;;;;;;27.80;38.79;98983.17;79781;1293;3011444;-67
2023/08/08 11:16:45;;;;;;;3.70;1.20;;;;;;;27.96;38.39;98975.72;78600;1299;3069040;-68
2023/08/08 11:19:12;;;;;;;0.70;0.70;;;;;;;28.25;37.93;98972.54;79728;1292;3011428;-67